x

Ilm2 - 5 Miles Se Of Wrightsville Beach, Nc (41038) Weather Station

3:08pm - Tue 28th Apr 2015 All times are EDT. -4 hours from GMT.

  • Wind
    2mph, 7mph gusts
  • Sea Temp 66°f
  • 空気 Temp 63°f
  • Sea Pressure 1012.6mb
  • Ilm2 - 5 Miles Se Of Wrightsville Beach, Nc
  • Ilm2 - 5 Miles Se Of Wrightsville Beach, Nc

More Historic Weather Station data

Upgrade to MSW Pro to gain access to the past 30 days of data for over 8000 Wavebouys and Weather Stations around the globe.

Join Pro

Comparision Forecast

View Surf forecast
   
Tue 04/28 3:08pm 2 7 mph 1012.6mb 66f 63f
2:53pm 2 7 mph 1012.6mb 66f 62f
2:38pm 2 7 mph 1012.8mb 66f 62f
2:23pm 4 7 mph 1013.1mb 66f 62f
2:08pm 7 11 mph 1013.4mb 66f 61f
1:53pm 7 13 mph 1013.6mb 66f 61f
1:38pm 4 7 mph 1013.6mb 65f 61f
1:23pm 4 9 mph 1013.8mb 65f 60f
1:08pm 4 9 mph 1013.9mb 65f 60f
12:53pm 2 4 mph 1014.1mb 65f 60f
12:38pm 4 7 mph 1014.4mb 65f 59f
12:23pm 4 9 mph 1014.6mb 65f 59f
12:08pm 7 11 mph 1014.8mb 65f 58f
11:53am 7 11 mph 1014.9mb 65f 58f
11:38am 7 9 mph 1015mb 65f 57f
11:23am 7 11 mph 1014.9mb 65f 57f
11:08am 9 16 mph 1015.1mb 65f 57f
9:08am 18 25 mph 1014.4mb 65f 56f
8:53am 18 25 mph 1014.3mb 65f 56f
8:38am 20 25 mph 1014.2mb 65f 56f
8:23am 20 25 mph 1014.1mb 65f 56f
8:08am 20 27 mph 1014mb 65f 56f
7:53am 20 29 mph 1013.9mb 65f 56f
7:38am 20 27 mph 1013.7mb 65f 56f
7:23am 20 27 mph 1013.5mb 65f 56f
7:08am 20 29 mph 1013.4mb 65f 57f
6:53am 20 27 mph 1013.3mb 65f 57f
6:38am 20 27 mph 1013.2mb 65f 57f
6:23am 20 27 mph 1012.8mb 65f 57f
6:08am 18 25 mph 1012.8mb 65f 57f
5:53am 13 20 mph 1012.7mb 65f 58f
5:38am 13 18 mph 1012.6mb 65f 58f
5:23am 13 18 mph 1012.2mb 65f 58f
5:08am 16 20 mph 1012.1mb 65f 58f
4:53am 13 18 mph 1012.3mb 65f 59f
4:38am 13 18 mph 1012.4mb 65f 59f
4:23am 13 18 mph 1012.4mb 65f 59f
4:08am 16 20 mph 1012.2mb 65f 59f
3:53am 13 20 mph 1012.3mb 65f 59f
3:38am 16 22 mph 1012.3mb 65f 59f
3:23am 16 22 mph 1012.1mb 65f 59f
3:08am 18 22 mph 1011.8mb 65f 59f
2:53am 18 22 mph 1011.9mb 65f 59f
2:38am 18 25 mph 1011.8mb 65f 59f
2:23am 20 27 mph 1011.5mb 65f 60f
2:08am 20 25 mph 1011.5mb 65f 60f
1:53am 22 27 mph 1011.8mb 65f 60f
1:38am 20 29 mph 1011.8mb 65f 60f
1:23am 22 29 mph 1011.7mb 65f 61f
1:08am 20 29 mph 1011.7mb 65f 61f
12:53am 22 29 mph 1012mb 65f 62f
12:38am 20 27 mph 1012.1mb 65f 62f
12:23am 18 25 mph 1012.1mb 65f 62f
12:08am 18 25 mph 1012.1mb 65f 63f
Mon 04/27 11:53pm 18 25 mph 1011.9mb 65f 63f
11:38pm 18 22 mph 1012.1mb 65f 64f
11:23pm 18 25 mph 1011.9mb 65f 65f
11:08pm 9 13 mph 1011.9mb 65f 65f
10:53pm 9 11 mph 1011.8mb 65f 65f
10:38pm 9 11 mph 1011.6mb 65f 65f
10:23pm 7 11 mph 1011.4mb 65f 65f
10:08pm 9 11 mph 1011mb 65f 65f
9:53pm 9 13 mph 1010.9mb 65f 66f
9:38pm 9 13 mph 1010.8mb 65f 66f
9:23pm 9 13 mph 1010.5mb 65f 66f
9:08pm 9 11 mph 1010.1mb 65f 66f
8:53pm 9 13 mph 1010.2mb 65f 66f
8:38pm 9 13 mph 1009.8mb 65f 66f
8:23pm 4 9 mph 1009.6mb 65f 66f
8:08pm 7 13 mph 1009.7mb 65f 65f
7:53pm 11 16 mph 1009.5mb 65f 64f
7:38pm 13 20 mph 1009.6mb 65f 64f
7:23pm 16 20 mph 1009.3mb 65f 64f
7:08pm 16 20 mph 1009.3mb 65f 64f
6:53pm 13 18 mph 1009.1mb 65f 64f
6:38pm 13 18 mph 1009mb 66f 64f
6:23pm 16 20 mph 1008.4mb 66f 64f
6:08pm 13 18 mph 1008.2mb 66f 64f
5:53pm 13 16 mph 1008.1mb 66f 64f
5:38pm 13 16 mph 1008.2mb 66f 64f
5:23pm 13 16 mph 1008.3mb 66f 65f
5:08pm 13 16 mph 1008.1mb 66f 64f
4:53pm 11 16 mph 1008mb 66f 64f
4:38pm 11 16 mph 1008mb 66f 65f
4:23pm 11 13 mph 1008.2mb 66f 65f
4:08pm 7
mph
1008mb 66f 65f
3:53pm 9 11 mph 1007.9mb 66f 65f
3:38pm 11 13 mph 1008.2mb 67f 65f
3:23pm 9 11 mph 1008mb 67f 64f
3:08pm 9 13 mph 1007.9mb 67f 64f
2:53pm 9 11 mph 1008.1mb 67f 64f
2:38pm 9 11 mph 1008.1mb 67f 64f
2:23pm 7 11 mph 1008.3mb 67f 63f
2:08pm 4 9 mph 1008.5mb 66f 65f
1:53pm 4 7 mph 1008.8mb 66f 64f
1:38pm 4 7 mph 1008.8mb 66f 63f
1:23pm 2 7 mph 1009.3mb 66f 63f
1:08pm 2 4 mph 1009.4mb 65f 63f
12:53pm 2 4 mph 1009.8mb 65f 63f
12:38pm 4 7 mph 1010mb 65f 62f
12:23pm 4 9 mph 1010.2mb 65f 62f
12:08pm 7 9 mph 1010.2mb 65f 62f
11:53am 9 13 mph 1010.2mb 65f 61f
11:38am 9 13 mph 1010.1mb 65f 60f
11:23am 11 16 mph 1009.9mb 65f 60f
11:08am 11 16 mph 1009.9mb 65f 60f
10:53am 11 18 mph 1009.6mb 65f 59f
10:38am 11 16 mph 1009.8mb 65f 59f
10:23am 11 16 mph 1010mb 65f 58f
10:08am 13 18 mph 1009.7mb 65f 58f
9:53am 13 18 mph 1009.6mb 65f 58f
9:38am 13 18 mph 1009.4mb 65f 57f
9:23am 16 20 mph 1009.1mb 65f 57f
9:08am 16 22 mph 1008.6mb 65f 56f
8:53am 16 22 mph 1008.5mb 65f 56f
8:38am 18 22 mph 1008.5mb 65f 56f
8:23am 18 25 mph 1008.2mb 65f 55f
8:08am 20 25 mph 1008.1mb 65f 55f
7:53am 20 25 mph 1007.9mb 65f 55f
7:38am 20 25 mph 1007.9mb 65f 55f
7:23am 20 27 mph 1007.5mb 65f 55f
7:08am 18 22 mph 1007.5mb 65f 55f
6:53am 16 20 mph 1007.5mb 65f 55f
6:23am 16 20 mph 1007mb 65f 55f
6:08am 13 20 mph 1006.8mb 65f 55f
5:53am 13 20 mph 1006.8mb 65f 55f
4:53am 16 20 mph 1006.3mb 65f 55f
3:53am 13 22 mph 1006.4mb 65f 55f
3:08am 16 22 mph 1006.4mb 65f 55f
2:53am 16 22 mph 1006.5mb 65f 54f
2:38am 16 22 mph 1006.5mb 65f 55f
2:23am 16 22 mph 1006.8mb 65f 55f
2:08am 13 20 mph 1007.5mb 65f 55f
1:53am 11 18 mph 1007.1mb 65f 55f
1:08am 16 20 mph 1007.1mb 65f 55f
12:53am 16 20 mph 1007mb 65f 55f
12:38am 16 22 mph 1006.7mb 65f 56f
12:23am 16 20 mph 1007.2mb 65f 56f
12:08am 13 20 mph 1007.4mb 65f 56f
Sun 04/26 11:53pm 13 20 mph 1007.5mb 65f 56f
11:38pm 11 20 mph 1007.6mb 65f 56f
11:23pm 11 18 mph 1007.5mb 65f 56f
11:08pm 13 20 mph 1007.5mb 65f 56f
10:53pm 16 22 mph 1007.2mb 65f 56f
10:38pm 13 20 mph 1007.8mb 65f 56f
10:23pm 16 22 mph 1007.4mb 65f 56f
10:08pm 16 22 mph 1007.4mb 65f 56f
9:53pm 16 20 mph 1007.5mb 65f 56f
9:38pm 13 20 mph 1007.3mb 65f 56f
9:23pm 13 22 mph 1006.8mb 65f 56f
9:08pm 13 20 mph 1006.6mb 65f 56f
8:53pm 16 22 mph 1006.3mb 65f 57f
8:38pm 18 25 mph 1006.2mb 65f 57f
8:23pm 18 25 mph 1006.5mb 65f 57f
8:08pm 20 25 mph 1005.9mb 65f 57f
7:53pm 18 25 mph 1005.3mb 65f 58f
7:38pm 16 22 mph 1005.5mb 65f 58f
7:23pm 16 22 mph 1005.5mb 65f 58f
7:08pm 16 22 mph 1005.2mb 65f 58f
6:53pm 18 22 mph 1004.9mb 65f 58f
6:38pm 16 22 mph 1004.4mb 65f 59f
6:23pm 16 22 mph 1004.7mb 65f 59f
6:08pm 13 20 mph 1004.6mb 65f 58f
5:53pm 16 20 mph 1004.4mb 65f 58f
5:38pm 16 20 mph 1004.4mb 65f 59f
5:23pm 16 22 mph 1004mb 65f 59f
5:08pm 18 25 mph 1003.9mb 65f 60f
4:53pm 18 25 mph 1003.7mb 65f 60f
4:38pm 18 25 mph 1003.5mb 65f 60f
4:23pm 16 20 mph 1003.8mb 65f 60f
4:08pm 13 18 mph 1003.7mb 65f 60f
3:53pm 16 20 mph 1003.8mb 65f 60f
3:38pm 16 20 mph 1003.7mb 65f 60f
3:23pm 13 18 mph 1003.9mb 65f 60f
3:08pm 11 16 mph 1004.1mb 65f 59f
2:53pm 11 16 mph 1004.3mb 65f 59f
2:38pm 13 18 mph 1004mb 65f 59f
2:23pm 11 16 mph 1004.1mb 65f 58f
2:08pm 11 16 mph 1003.8mb 65f 58f
1:53pm 13 18 mph 1003.9mb 65f 58f
1:38pm 13 20 mph 1003.7mb 65f 58f
1:23pm 16 20 mph 1003.7mb 65f 58f
1:08pm 13 18 mph 1003.8mb 65f 58f
12:53pm 13 18 mph 1003.8mb 65f 58f
12:38pm 16 20 mph 1003.5mb 65f 58f
12:23pm 16 22 mph 1003.4mb 65f 58f
12:08pm 13 18 mph 1003.5mb 65f 59f
11:53am 13 18 mph 1003.7mb 65f 59f
11:38am 13 18 mph 1003.5mb 65f 59f
11:23am 13 18 mph 1003.5mb 65f 59f
11:08am 13 18 mph 1003.3mb 65f 59f
10:53am 13 18 mph 1003.1mb 65f 59f
10:38am 13 18 mph 1003mb 65f 60f
10:23am 11 16 mph 1002.8mb 65f 60f
10:08am 13 18 mph 1002.4mb 65f 61f
9:53am 13 18 mph 1002.1mb 65f 61f
9:38am 16 20 mph 1001.9mb 65f 62f
9:23am 16 20 mph 1001.7mb 65f 62f
9:08am 16 22 mph 1001.9mb 65f 62f
8:53am 11 16 mph 1001.6mb 65f 63f
8:38am 13 18 mph 1001.7mb 65f 62f
8:23am 13 18 mph 1001.4mb 65f 62f
8:08am 13 18 mph 1000.8mb 65f 63f
7:53am 9 13 mph 1001.1mb 65f 64f
7:38am 9 13 mph 1000.7mb 65f 64f
7:23am 9 13 mph 1000.9mb 65f 64f
7:08am 9 13 mph 1000.6mb 65f 64f
6:53am 4 13 mph 1000.5mb 65f 64f
6:38am 9 13 mph 1000.5mb 65f 64f
6:23am 7 9 mph 1000.3mb 65f 64f
6:08am 7 11 mph 1000.3mb 65f 64f
5:53am 7 11 mph 1000.2mb 65f 64f
5:38am 4 9 mph 1000.1mb 65f 64f
5:23am 9 13 mph 1000.1mb 65f 65f
5:08am 2 7 mph 1000.2mb 65f 66f
4:53am 2 4 mph 1000.2mb 65f 66f
4:38am 2 4 mph 1000.1mb 65f 66f
4:23am 4 7 mph 1000mb 65f 67f
4:08am 2 7 mph 1000.2mb 65f 67f
3:53am 2 4 mph 1000.4mb 65f 67f
3:38am 2 7 mph 1000.5mb 65f 67f
3:23am 2 4 mph 1000.5mb 65f 66f
3:08am 2 9 mph 1000.9mb 65f 67f
2:53am 4 9 mph 1001mb 65f 67f
2:38am 7 9 mph 1000.9mb 65f 67f
2:08am 4 9 mph 1001.1mb 65f 67f
1:53am 7 9 mph 1001.4mb 65f 67f
1:08am 7 11 mph 1001.9mb 65f 67f
12:53am 9 11 mph 1002.1mb 65f 67f
12:38am 9 13 mph 1002mb 65f 68f
12:23am 9 13 mph 1002.1mb 65f 67f
12:08am 9 13 mph 1002.5mb 65f 67f
Sat 04/25 11:53pm 11 16 mph 1002.5mb 65f 67f
11:38pm 11 16 mph 1002.5mb 65f 67f
11:23pm 11 16 mph 1002.6mb 65f 67f
11:08pm 11 16 mph 1002.4mb 65f 68f
10:53pm 13 18 mph 1002.3mb 65f 67f
10:38pm 13 16 mph 1002.1mb 65f 68f
10:23pm 11 16 mph 1002.3mb 65f 68f
10:08pm 13 18 mph 1002.4mb 65f 68f
9:53pm 16 20 mph 1002.4mb 65f 68f
9:38pm 18 22 mph 1002.6mb 65f 68f
9:23pm 18 25 mph 1002.7mb 65f 68f
9:08pm 18 25 mph 1002.6mb 65f 69f
8:53pm 16 20 mph 1002.7mb 65f 68f
8:38pm 13 20 mph 1002.9mb 65f 68f
8:23pm 16 20 mph 1002.7mb 65f 68f
8:08pm 16 20 mph 1003.5mb 65f 68f
7:53pm 16 20 mph 1003.4mb 65f 68f
7:38pm 9 13 mph 1003.5mb 65f 67f
7:23pm 11 16 mph 1003.8mb 65f 67f
7:08pm 13 18 mph 1003.9mb 65f 67f
6:53pm 16 18 mph 1004.3mb 65f 68f
6:38pm 11 16 mph 1004.6mb 65f 68f
6:23pm 11 16 mph 1004.7mb 65f 68f
6:08pm 13 20 mph 1005.1mb 65f 67f
5:53pm 9 13 mph 1005.5mb 65f 67f
5:38pm 9 13 mph 1005.8mb 65f 67f
5:23pm 9 13 mph 1005.9mb 65f 67f
5:08pm 9 13 mph 1006.4mb 65f 67f
4:53pm 9 11 mph 1006.7mb 65f 66f
4:38pm 7 11 mph 1007mb 65f 66f
4:23pm 9 11 mph 1007.1mb 65f 66f
4:08pm 9 11 mph 1007.4mb 65f 66f
3:53pm 9 13 mph 1007.4mb 65f 65f
3:38pm 9 13 mph 1007.8mb 65f 65f
3:23pm 9 13 mph 1007.9mb 65f 64f
3:08pm 7 11 mph 1008.8mb 65f 63f
2:53pm 9
mph
1009.3mb 65f 63f
2:38pm 7 9 mph 1009.7mb 65f 62f
2:23pm 7 9 mph 1010.2mb 65f 62f
2:08pm 7 9 mph 1010.6mb 65f 62f
1:53pm 4 7 mph 1010.7mb 65f 62f
1:38pm 2 7 mph 1011.3mb 65f 62f
1:23pm 2 7 mph 1011.7mb 65f 63f
1:08pm 4 9 mph 1012.1mb 65f 63f
12:53pm 7 9 mph 1012.3mb 65f 63f
12:38pm 9 11 mph 1012.6mb 65f 63f
12:23pm 11 13 mph 1013.2mb 65f 64f
12:08pm 13 16 mph 1013.5mb 65f 64f
11:53am 11 16 mph 1013.8mb 65f 64f
11:38am 11 16 mph 1013.9mb 65f 64f
11:23am 13 18 mph 1013.9mb 65f 65f
11:08am 16 22 mph 1013.5mb 65f 66f
10:53am 16 20 mph 1013.5mb 65f 66f
10:38am 16 20 mph 1013.5mb 65f 66f
10:23am 13 18 mph 1013.7mb 65f 66f
10:08am 13 18 mph 1013.3mb 65f 66f
9:53am 13 20 mph 1013.3mb 65f 66f
9:38am 11 16 mph 1013.4mb 65f 66f
9:23am 13 16 mph 1013.4mb 65f 66f
9:08am 11 16 mph 1013.5mb 65f 66f
8:53am 11 16 mph 1013.3mb 65f 66f
8:38am 13 18 mph 1013.2mb 65f 66f
8:23am 13 18 mph 1013.3mb 65f 66f
8:08am 13 18 mph 1013.4mb 65f 66f
7:53am 13 18 mph 1013.7mb 65f 66f
7:38am 13 18 mph 1013.7mb 65f 65f
7:23am 13 18 mph 1013.7mb 65f 65f
7:08am 11 18 mph 1013.7mb 65f 65f
6:53am 13 16 mph 1013.7mb 65f 65f
6:38am 11 16 mph 1013.8mb 65f 65f
6:23am 9 13 mph 1013.9mb 65f 65f
6:08am 9 13 mph 1013.7mb 65f 64f
5:53am 11 13 mph 1013.6mb 65f 64f
5:08am 13 16 mph 1013.9mb 65f 64f
4:53am 11 16 mph 1013.8mb 65f 64f
4:38am 11 16 mph 1013.9mb 65f 64f
4:23am 11 16 mph 1013.8mb 65f 64f
4:08am 11 13 mph 1013.8mb 65f 64f
3:53am 11 16 mph 1014.1mb 65f 64f
3:38am 11 16 mph 1014.1mb 65f 64f
3:23am 13 18 mph 1014.1mb 65f 64f
3:08am 16 18 mph 1014.1mb 65f 64f
2:53am 13 18 mph 1014.1mb 65f 64f
2:38am 13 16 mph 1014mb 65f 64f
2:23am 13 16 mph 1014.1mb 65f 64f
2:08am 13 18 mph 1014.6mb 65f 64f
1:53am 13 18 mph 1014.7mb 65f 64f
1:08am 16 22 mph 1015mb 65f 64f
12:53am 16 20 mph 1015mb 65f 64f
12:38am 16 20 mph 1015mb 65f 64f
12:23am 16 20 mph 1015mb 65f 64f
12:08am 16 22 mph 1015.2mb 65f 63f
Fri 04/24 11:53pm 16 20 mph 1015.3mb 65f 63f
11:38pm 16 20 mph 1015.5mb 65f 63f
11:23pm 16 22 mph 1015.6mb 65f 64f
11:08pm 16 20 mph 1015.8mb 65f 64f
10:53pm 16 20 mph 1015.8mb 65f 64f
10:38pm 16 22 mph 1016mb 65f 63f
10:23pm 16 22 mph 1016.2mb 65f 64f
10:08pm 16 22 mph 1016.3mb 65f 63f
9:53pm 16 22 mph 1016.2mb 65f 64f
9:38pm 18 22 mph 1016.4mb 65f 64f
9:23pm 18 22 mph 1016.1mb 65f 64f
9:08pm 18 22 mph 1016.1mb 65f 63f
8:53pm 18 25 mph 1016mb 65f 63f